createdAt,value
2023-05-12T00:01:16.275Z,12.85
2023-05-12T00:03:43.404Z,15.97
2023-05-12T00:06:10.409Z,13.48
2023-05-12T00:08:37.185Z,19.88
2023-05-12T00:11:05.243Z,17.75
2023-05-12T00:13:32.010Z,12.27
2023-05-12T00:15:59.325Z,13.63
2023-05-12T00:18:28.314Z,18.58
2023-05-12T00:20:55.660Z,15.45
2023-05-12T00:23:22.745Z,17.40
2023-05-12T00:25:50.482Z,14.57
2023-05-12T00:28:18.757Z,11.70
2023-05-12T00:30:45.588Z,15.38
2023-05-12T00:33:12.604Z,14.60
2023-05-12T00:35:39.647Z,16.95
2023-05-12T00:38:07.986Z,12.55
2023-05-12T00:40:34.752Z,11.23
2023-05-12T00:43:01.572Z,14.18
2023-05-12T00:45:29.782Z,12.73
2023-05-12T00:47:59.663Z,11.95
2023-05-12T00:50:26.528Z,10.82
2023-05-12T00:52:53.410Z,11.43
2023-05-12T00:55:20.780Z,12.07
2023-05-12T00:57:47.610Z,15.35
2023-05-12T01:00:14.629Z,12.20
2023-05-12T01:02:41.799Z,10.80
2023-05-12T01:05:09.961Z,15.77
2023-05-12T01:07:39.008Z,13.32
2023-05-12T01:10:20.201Z,11.88
2023-05-12T01:12:48.295Z,11.18
2023-05-12T01:15:15.245Z,11.18
2023-05-12T01:17:53.209Z,18.25
2023-05-12T01:20:25.163Z,12.13
2023-05-12T01:22:52.537Z,13.35
2023-05-12T01:25:22.376Z,12.18
2023-05-12T01:27:50.408Z,16.02
2023-05-12T01:30:23.163Z,13.07
2023-05-12T01:32:51.157Z,15.02
2023-05-12T01:35:18.000Z,12.50
2023-05-12T01:37:45.809Z,9.57
2023-05-12T01:40:12.713Z,10.35
2023-05-12T01:42:42.041Z,12.05
2023-05-12T01:45:09.560Z,12.43
2023-05-12T01:47:36.323Z,16.35
2023-05-12T01:50:03.411Z,14.70
2023-05-12T01:52:30.481Z,15.40
2023-05-12T01:54:57.237Z,13.65
2023-05-12T01:57:24.094Z,16.05
2023-05-12T01:59:50.903Z,15.50
2023-05-12T02:02:17.659Z,10.82
2023-05-12T02:04:44.512Z,13.95
2023-05-12T02:07:11.733Z,9.93
2023-05-12T02:09:38.421Z,12.82
2023-05-12T02:12:05.902Z,17.67
2023-05-12T02:14:32.648Z,11.23
2023-05-12T02:17:00.140Z,11.65
2023-05-12T02:19:26.995Z,12.85
2023-05-12T02:21:53.730Z,13.73
2023-05-12T02:24:21.310Z,14.20
2023-05-12T02:26:48.236Z,14.60
2023-05-12T02:29:15.092Z,14.57
2023-05-12T02:31:42.066Z,12.48
2023-05-12T02:34:09.118Z,12.75
2023-05-12T02:36:35.879Z,14.80
2023-05-12T02:39:02.737Z,12.90
2023-05-12T02:41:29.642Z,15.68
2023-05-12T02:43:56.346Z,15.32
2023-05-12T02:46:23.081Z,11.25
2023-05-12T02:48:49.900Z,14.27
2023-05-12T02:51:16.710Z,12.80
2023-05-12T02:53:43.379Z,13.68
2023-05-12T02:56:10.185Z,9.93
2023-05-12T02:58:37.259Z,13.65
2023-05-12T03:01:10.886Z,14.80
2023-05-12T03:03:38.542Z,14.05
2023-05-12T03:06:06.141Z,9.65
2023-05-12T03:08:33.105Z,12.55
2023-05-12T03:11:01.189Z,12.35
2023-05-12T03:13:28.179Z,13.93
2023-05-12T03:15:55.667Z,16.30
2023-05-12T03:18:22.669Z,12.02
2023-05-12T03:20:49.538Z,14.93
2023-05-12T03:23:16.895Z,16.88
2023-05-12T03:25:43.646Z,15.13
2023-05-12T03:28:10.637Z,22.88
2023-05-12T03:30:37.434Z,17.33
2023-05-12T03:33:04.473Z,17.38
2023-05-12T03:35:31.286Z,19.95
2023-05-12T03:37:58.167Z,15.40
2023-05-12T03:40:24.906Z,18.35
2023-05-12T03:42:52.019Z,17.85
2023-05-12T03:45:19.431Z,17.63
2023-05-12T03:47:46.227Z,15.13
2023-05-12T03:50:13.163Z,14.13
2023-05-12T03:52:41.529Z,18.55
2023-05-12T03:55:09.163Z,14.73
2023-05-12T03:57:36.687Z,16.75
2023-05-12T04:00:05.116Z,15.10
2023-05-12T04:02:32.025Z,13.02
2023-05-12T04:04:58.805Z,13.80
2023-05-12T04:07:25.653Z,16.25
2023-05-12T04:09:52.409Z,15.35
2023-05-12T04:12:19.099Z,12.02
2023-05-12T04:14:46.183Z,14.40
2023-05-12T04:17:13.040Z,12.68
2023-05-12T04:19:39.835Z,12.73
2023-05-12T04:22:07.624Z,10.95
2023-05-12T04:24:34.470Z,10.05
2023-05-12T04:27:01.335Z,14.75
2023-05-12T04:29:28.621Z,16.83
2023-05-12T04:31:55.891Z,9.88
2023-05-12T04:34:22.606Z,13.95
2023-05-12T04:36:49.291Z,17.55
2023-05-12T04:39:15.968Z,22.73
2023-05-12T04:41:45.873Z,18.77
2023-05-12T04:44:12.671Z,12.32
2023-05-12T04:46:39.472Z,15.43
2023-05-12T04:49:06.242Z,14.70
2023-05-12T04:51:33.083Z,17.70
2023-05-12T04:53:59.922Z,17.30
2023-05-12T04:56:26.694Z,12.85
2023-05-12T04:58:53.426Z,14.70
2023-05-12T05:01:20.195Z,9.35
2023-05-12T05:03:47.042Z,13.73
2023-05-12T05:06:13.914Z,14.88
2023-05-12T05:08:40.843Z,13.23
2023-05-12T05:11:07.641Z,14.15
2023-05-12T05:13:34.533Z,13.23
2023-05-12T05:16:01.688Z,15.32
2023-05-12T05:18:29.259Z,14.00
2023-05-12T05:20:58.399Z,20.17
2023-05-12T05:23:26.013Z,22.30
2023-05-12T05:25:53.072Z,11.40
2023-05-12T05:28:19.857Z,22.13
2023-05-12T05:30:46.527Z,19.27
2023-05-12T05:33:13.419Z,19.48
2023-05-12T05:35:40.754Z,14.88
2023-05-12T05:38:07.497Z,16.77
2023-05-12T05:40:44.969Z,13.43
2023-05-12T05:43:18.793Z,12.48
2023-05-12T05:45:45.808Z,16.45
2023-05-12T05:48:12.703Z,14.50
2023-05-12T05:50:39.379Z,15.40
2023-05-12T05:53:06.726Z,13.90
2023-05-12T05:55:33.484Z,15.07
2023-05-12T05:58:00.190Z,12.00
2023-05-12T06:00:26.933Z,16.38
2023-05-12T06:02:53.920Z,19.45
2023-05-12T06:05:21.259Z,10.60
2023-05-12T06:07:48.305Z,18.13
2023-05-12T06:10:15.250Z,14.10
2023-05-12T06:12:43.151Z,12.50
2023-05-12T06:15:10.528Z,13.95
2023-05-12T06:17:37.703Z,17.55
2023-05-12T06:20:05.481Z,18.88
2023-05-12T06:22:33.151Z,10.43
2023-05-12T06:25:00.159Z,14.65
2023-05-12T06:27:27.272Z,12.73
2023-05-12T06:29:53.972Z,14.40
2023-05-12T06:32:20.800Z,14.52
2023-05-12T06:34:47.705Z,13.27
2023-05-12T06:37:14.443Z,21.17
2023-05-12T06:39:41.218Z,17.58
2023-05-12T06:42:08.081Z,13.00
2023-05-12T06:44:34.826Z,13.80
2023-05-12T06:47:01.535Z,12.48
2023-05-12T06:49:28.305Z,13.30
2023-05-12T06:51:55.101Z,19.88
2023-05-12T06:54:21.819Z,21.23
2023-05-12T06:56:48.564Z,16.38
2023-05-12T06:59:15.625Z,12.65
2023-05-12T07:01:43.108Z,14.43
2023-05-12T07:04:09.955Z,10.80
2023-05-12T07:06:37.015Z,15.20
2023-05-12T07:09:04.504Z,10.65
2023-05-12T07:11:31.264Z,19.08
2023-05-12T07:13:57.972Z,18.23
2023-05-12T07:16:24.927Z,15.70
2023-05-12T07:18:51.740Z,14.43
2023-05-12T07:21:18.780Z,15.25
2023-05-12T07:23:45.755Z,12.18
2023-05-12T07:26:13.515Z,9.05
2023-05-12T07:28:42.815Z,10.02
2023-05-12T07:31:09.527Z,10.40
2023-05-12T07:33:36.746Z,11.77
2023-05-12T07:36:04.788Z,11.75
2023-05-12T07:38:32.434Z,10.95
2023-05-12T07:40:59.643Z,9.20
2023-05-12T07:43:26.749Z,13.45
2023-05-12T07:45:54.629Z,9.20
2023-05-12T07:48:21.679Z,12.75
2023-05-12T07:50:48.463Z,8.35
2023-05-12T07:53:15.204Z,11.18
2023-05-12T07:55:43.645Z,8.82
2023-05-12T07:58:11.619Z,11.30
2023-05-12T08:00:38.744Z,11.80
2023-05-12T08:03:07.568Z,66.03
2023-05-12T08:05:34.525Z,12.20
2023-05-12T08:08:01.280Z,12.55
2023-05-12T08:10:29.888Z,9.45
2023-05-12T08:12:56.770Z,7.97
2023-05-12T08:15:23.773Z,13.18
2023-05-12T08:17:50.593Z,10.30
2023-05-12T08:20:17.392Z,13.63
2023-05-12T08:22:44.631Z,11.85
2023-05-12T08:25:12.611Z,11.93
2023-05-12T08:27:39.582Z,11.35
2023-05-12T08:30:06.824Z,9.10
2023-05-12T08:32:33.749Z,7.65
2023-05-12T08:35:01.083Z,8.75
2023-05-12T08:37:28.073Z,12.93
2023-05-12T08:39:55.150Z,10.82
2023-05-12T08:42:36.756Z,8.25
2023-05-12T08:45:04.260Z,9.25
2023-05-12T08:47:33.651Z,8.65
2023-05-12T08:50:03.196Z,5.88
2023-05-12T08:52:35.178Z,11.15
2023-05-12T08:55:03.783Z,6.85
2023-05-12T08:57:31.448Z,11.55
2023-05-12T09:00:00.084Z,9.23
2023-05-12T09:02:37.735Z,12.93
2023-05-12T09:05:09.074Z,12.75
2023-05-12T09:07:38.807Z,10.18
2023-05-12T09:10:07.856Z,10.77
2023-05-12T09:12:37.086Z,8.23
2023-05-12T09:15:08.130Z,10.35
2023-05-12T09:17:38.120Z,12.80
2023-05-12T09:20:09.813Z,8.55
2023-05-12T09:22:40.016Z,16.85
2023-05-12T09:25:21.754Z,10.57
2023-05-12T09:27:54.030Z,6.20
2023-05-12T09:30:30.640Z,11.80
2023-05-12T09:33:13.990Z,8.32
2023-05-12T09:35:46.820Z,9.55
2023-05-12T09:38:14.888Z,9.90
2023-05-12T09:40:43.062Z,6.07
2023-05-12T09:43:11.584Z,5.85
2023-05-12T09:48:14.215Z,7.72
2023-05-12T09:50:50.468Z,9.43
2023-05-12T09:53:19.046Z,8.70
2023-05-12T09:55:47.516Z,8.50
2023-05-12T09:58:17.349Z,5.65
2023-05-12T10:01:12.854Z,9.52
2023-05-12T10:03:33.807Z,12.02
2023-05-12T10:06:03.830Z,8.02
2023-05-12T10:08:37.161Z,9.52
2023-05-12T10:11:07.742Z,7.30
2023-05-12T10:13:34.948Z,15.45
2023-05-12T10:16:11.122Z,7.15
2023-05-12T10:18:46.619Z,9.65
2023-05-12T10:21:18.237Z,12.75
2023-05-12T10:24:08.316Z,6.20
2023-05-12T10:26:39.429Z,9.75
2023-05-12T10:29:13.723Z,8.45
2023-05-12T10:31:52.715Z,8.80
2023-05-12T10:34:35.702Z,10.10
2023-05-12T10:37:08.469Z,14.50
2023-05-12T10:39:49.754Z,10.00
2023-05-12T10:42:30.432Z,5.25
2023-05-12T10:45:10.642Z,13.70
2023-05-12T10:47:54.599Z,6.22
2023-05-12T10:50:28.566Z,12.95
2023-05-12T10:53:05.288Z,12.52
2023-05-12T10:58:13.994Z,9.68
2023-05-12T11:00:50.845Z,11.13
2023-05-12T11:03:25.330Z,7.32
2023-05-12T11:06:11.054Z,9.43
2023-05-12T11:08:40.303Z,6.90
2023-05-12T11:11:07.872Z,6.00
2023-05-12T11:13:37.681Z,9.73
2023-05-12T11:16:07.360Z,8.40
2023-05-12T11:18:34.612Z,7.55
2023-05-12T11:21:10.163Z,9.63
2023-05-12T11:23:40.169Z,11.18
2023-05-12T11:26:16.417Z,12.55
2023-05-12T11:28:43.332Z,6.63
2023-05-12T11:31:19.197Z,9.23
2023-05-12T11:33:51.861Z,13.77
2023-05-12T11:36:25.424Z,12.07
2023-05-12T11:38:53.040Z,6.32
2023-05-12T11:41:26.883Z,10.60
2023-05-12T11:43:53.831Z,5.47
2023-05-12T11:46:27.878Z,10.70
2023-05-12T11:48:56.607Z,5.28
2023-05-12T11:51:24.661Z,11.82
2023-05-12T11:53:55.539Z,11.60
2023-05-12T11:56:23.692Z,10.73
2023-05-12T11:58:58.783Z,9.05
2023-05-12T12:01:26.090Z,10.18
2023-05-12T12:03:55.392Z,8.73
2023-05-12T12:06:23.136Z,6.57
2023-05-12T12:08:58.718Z,12.30
2023-05-12T12:11:30.747Z,8.45
2023-05-12T12:13:57.811Z,8.95
2023-05-12T12:16:26.277Z,9.13
2023-05-12T12:18:53.698Z,8.80
2023-05-12T12:21:21.721Z,7.25
2023-05-12T12:23:52.371Z,9.65
2023-05-12T12:26:21.057Z,6.32
2023-05-12T12:28:48.086Z,8.07
2023-05-12T12:31:16.018Z,9.70
2023-05-12T12:33:43.327Z,5.07
2023-05-12T12:36:11.682Z,9.32
2023-05-12T12:38:38.680Z,8.73
2023-05-12T12:41:07.142Z,7.10
2023-05-12T12:43:34.225Z,6.53
2023-05-12T12:46:02.448Z,10.85
2023-05-12T12:48:31.039Z,12.82
2023-05-12T12:50:58.157Z,11.25
2023-05-12T12:53:24.933Z,8.85
2023-05-12T12:56:01.350Z,17.70
2023-05-12T12:58:31.694Z,6.22
2023-05-12T13:00:59.786Z,13.93
2023-05-12T13:03:27.812Z,12.80
2023-05-12T13:05:55.048Z,7.03
2023-05-12T13:08:22.267Z,11.27
2023-05-12T13:10:50.900Z,4.65
2023-05-12T13:13:17.708Z,4.65
2023-05-12T13:15:53.242Z,10.52
2023-05-12T13:18:20.748Z,13.57
2023-05-12T13:20:47.812Z,8.20
2023-05-12T13:23:18.731Z,6.63
2023-05-12T13:25:46.522Z,14.82
2023-05-12T13:28:13.375Z,8.55
2023-05-12T13:30:41.395Z,8.07
2023-05-12T13:33:08.395Z,9.27
2023-05-12T13:35:35.359Z,10.73
2023-05-12T13:38:02.146Z,7.03
2023-05-12T13:40:30.466Z,6.10
2023-05-12T13:43:13.147Z,15.40
2023-05-12T13:45:39.939Z,10.82
2023-05-12T13:48:06.959Z,9.07
2023-05-12T13:50:34.179Z,9.70
2023-05-12T13:53:01.180Z,6.88
2023-05-12T13:55:27.893Z,9.25
2023-05-12T13:57:54.704Z,5.53
2023-05-12T14:00:22.020Z,10.15
2023-05-12T14:02:48.843Z,12.05
2023-05-12T14:05:15.841Z,8.43
2023-05-12T14:07:42.639Z,7.70
2023-05-12T14:10:10.142Z,9.43
2023-05-12T14:12:41.179Z,11.57
2023-05-12T14:15:22.041Z,10.00
2023-05-12T14:17:53.177Z,9.25
2023-05-12T14:20:19.875Z,6.97
2023-05-12T14:22:46.704Z,13.90
2023-05-12T14:25:16.086Z,9.23
2023-05-12T14:27:42.791Z,13.07
2023-05-12T14:30:10.681Z,7.75
2023-05-12T14:32:37.579Z,6.22
2023-05-12T14:35:05.753Z,11.43
2023-05-12T14:37:33.770Z,11.50
2023-05-12T14:40:00.930Z,11.23
2023-05-12T14:42:29.392Z,9.77
2023-05-12T14:44:56.529Z,6.75
2023-05-12T14:47:23.658Z,8.13
2023-05-12T14:49:50.659Z,8.88
2023-05-12T14:52:17.663Z,11.50
2023-05-12T14:54:44.397Z,8.07
2023-05-12T14:57:13.400Z,8.05
2023-05-12T14:59:40.090Z,9.25
2023-05-12T15:02:07.819Z,15.88
2023-05-12T15:04:34.689Z,7.07
2023-05-12T15:07:01.413Z,6.18
2023-05-12T15:09:28.132Z,5.65
2023-05-12T15:11:55.141Z,8.68
2023-05-12T15:14:21.941Z,6.35
2023-05-12T15:16:48.781Z,9.63
2023-05-12T15:19:17.521Z,8.30
2023-05-12T15:21:44.458Z,7.95
2023-05-12T15:24:11.242Z,7.72
2023-05-12T15:26:40.000Z,12.50
2023-05-12T15:29:07.378Z,10.13
2023-05-12T15:31:34.370Z,8.70
2023-05-12T15:34:01.107Z,8.45
2023-05-12T15:36:27.823Z,10.50
2023-05-12T15:38:54.608Z,8.55
2023-05-12T15:41:22.129Z,9.93
2023-05-12T15:43:48.818Z,19.38
2023-05-12T15:46:15.529Z,8.35
2023-05-12T15:48:42.285Z,17.02
2023-05-12T15:51:08.979Z,15.25
2023-05-12T15:53:35.678Z,11.73
2023-05-12T15:56:03.771Z,5.60
2023-05-12T15:58:31.343Z,13.07
2023-05-12T16:00:58.198Z,6.63
2023-05-12T16:03:25.020Z,7.68
2023-05-12T16:05:52.659Z,12.23
2023-05-12T16:08:19.372Z,9.88
2023-05-12T16:10:46.090Z,7.65
2023-05-12T16:13:13.739Z,6.28
2023-05-12T16:15:40.550Z,8.13
2023-05-12T16:18:09.910Z,5.38
2023-05-12T16:20:37.883Z,8.13
2023-05-12T16:23:04.752Z,7.88
2023-05-12T16:25:31.535Z,8.45
2023-05-12T16:27:58.305Z,8.80
2023-05-12T16:30:25.349Z,8.75
2023-05-12T16:32:52.266Z,11.77
2023-05-12T16:35:19.488Z,7.90
2023-05-12T16:37:46.538Z,6.72
2023-05-12T16:40:15.928Z,8.27
2023-05-12T16:42:42.849Z,9.10
2023-05-12T16:45:10.950Z,11.23
2023-05-12T16:47:37.931Z,4.72
2023-05-12T16:50:05.748Z,10.43
2023-05-12T16:52:32.498Z,10.20
2023-05-12T16:54:59.199Z,8.50
2023-05-12T16:57:28.213Z,5.72
2023-05-12T16:59:57.395Z,9.65
2023-05-12T17:02:25.631Z,11.77
2023-05-12T17:04:52.898Z,10.95
2023-05-12T17:07:19.639Z,14.90
2023-05-12T17:09:46.385Z,14.63
2023-05-12T17:12:16.123Z,10.48
2023-05-12T17:14:59.235Z,12.20
2023-05-12T17:17:30.599Z,14.85
2023-05-12T17:19:57.977Z,12.18
2023-05-12T17:22:27.131Z,16.02
2023-05-12T17:24:53.907Z,15.60
2023-05-12T17:27:20.941Z,12.00
2023-05-12T17:29:47.683Z,11.10
2023-05-12T17:32:14.381Z,14.63
2023-05-12T17:34:41.285Z,12.88
2023-05-12T17:37:08.375Z,14.55
2023-05-12T17:39:38.147Z,14.88
2023-05-12T17:42:05.551Z,9.60
2023-05-12T17:44:32.298Z,8.85
2023-05-12T17:47:01.945Z,10.75
2023-05-12T17:49:28.749Z,13.23
2023-05-12T17:51:55.474Z,10.05
2023-05-12T17:54:22.249Z,19.60
2023-05-12T17:56:49.009Z,24.48
2023-05-12T17:59:15.947Z,18.38
2023-05-12T18:01:44.917Z,20.23
2023-05-12T18:04:12.729Z,17.35
2023-05-12T18:06:40.042Z,20.08
2023-05-12T18:09:07.196Z,14.05
2023-05-12T18:11:34.374Z,16.30
2023-05-12T18:14:02.792Z,18.92
2023-05-12T18:16:29.889Z,17.80
2023-05-12T18:18:56.937Z,16.70
2023-05-12T18:21:23.997Z,17.42
2023-05-12T18:23:50.871Z,17.42
2023-05-12T18:26:17.712Z,16.88
2023-05-12T18:28:49.320Z,20.92
2023-05-12T18:31:19.499Z,25.63
2023-05-12T18:36:14.366Z,22.88
2023-05-12T18:38:42.641Z,29.65
2023-05-12T18:41:09.847Z,19.35
2023-05-12T18:43:36.880Z,31.88
2023-05-12T18:46:04.765Z,34.33
2023-05-12T18:48:31.987Z,27.55
2023-05-12T18:53:57.892Z,28.90
2023-05-12T18:56:26.092Z,34.92
2023-05-12T18:58:54.769Z,22.65
2023-05-12T19:01:31.973Z,31.23
2023-05-12T19:03:59.126Z,31.48
2023-05-12T19:06:28.743Z,32.65
2023-05-12T19:08:55.588Z,32.97
2023-05-12T19:11:22.365Z,32.20
2023-05-12T19:13:50.752Z,35.97
2023-05-12T19:16:18.251Z,46.00
2023-05-12T19:18:45.826Z,43.92
2023-05-12T19:21:13.110Z,42.83
2023-05-12T19:23:39.821Z,43.85
2023-05-12T19:26:07.198Z,49.40
2023-05-12T19:28:33.916Z,44.85
2023-05-12T19:31:00.629Z,45.55
2023-05-12T19:33:28.730Z,45.80
2023-05-12T19:35:55.882Z,41.45
2023-05-12T19:38:22.646Z,47.10
2023-05-12T19:40:49.331Z,42.00
2023-05-12T19:43:16.020Z,40.28
2023-05-12T19:45:42.723Z,40.88
2023-05-12T19:48:10.124Z,40.15
2023-05-12T19:50:36.857Z,37.30
2023-05-12T19:53:03.538Z,39.95
2023-05-12T19:55:30.626Z,37.22
2023-05-12T19:57:57.527Z,30.75
2023-05-12T20:00:26.536Z,30.92
2023-05-12T20:02:53.335Z,26.05
2023-05-12T20:05:20.470Z,29.80
2023-05-12T20:07:48.511Z,25.38
2023-05-12T20:10:15.351Z,27.08
2023-05-12T20:12:42.062Z,28.27
2023-05-12T20:15:09.338Z,29.67
2023-05-12T20:17:36.074Z,26.48
2023-05-12T20:20:04.212Z,23.58
2023-05-12T20:22:31.005Z,27.17
2023-05-12T20:25:03.959Z,27.17
2023-05-12T20:27:34.029Z,28.50
2023-05-12T20:30:00.750Z,30.70
2023-05-12T20:32:27.490Z,31.25
2023-05-12T20:34:54.181Z,32.58
2023-05-12T20:37:20.879Z,37.50
2023-05-12T20:39:47.588Z,39.28
2023-05-12T20:42:14.353Z,33.80
2023-05-12T20:44:41.005Z,40.63
2023-05-12T20:47:08.690Z,47.88
2023-05-12T20:49:35.471Z,32.67
2023-05-12T20:52:02.546Z,31.15
2023-05-12T20:54:29.205Z,33.80
2023-05-12T20:56:56.027Z,29.38
2023-05-12T20:59:24.418Z,31.98
2023-05-12T21:01:51.177Z,32.10
2023-05-12T21:04:18.232Z,41.63
2023-05-12T21:06:45.037Z,66.57
2023-05-12T21:09:11.752Z,66.82
2023-05-12T21:11:38.421Z,81.35
2023-05-12T21:14:05.351Z,70.90
2023-05-12T21:16:32.141Z,86.80
2023-05-12T21:18:58.857Z,68.88
2023-05-12T21:21:25.592Z,58.60
2023-05-12T21:23:52.380Z,45.83
2023-05-12T21:26:19.080Z,32.65
2023-05-12T21:28:45.778Z,34.00
2023-05-12T21:31:12.596Z,39.60
2023-05-12T21:33:39.332Z,32.53
2023-05-12T21:36:06.454Z,33.58
2023-05-12T21:38:33.161Z,30.58
2023-05-12T21:41:00.394Z,31.75
2023-05-12T21:43:27.130Z,32.47
2023-05-12T21:45:53.882Z,26.75
2023-05-12T21:48:20.636Z,32.08
2023-05-12T21:51:00.428Z,31.00
2023-05-12T21:53:27.799Z,25.30
2023-05-12T21:55:54.981Z,28.92
2023-05-12T21:58:23.637Z,26.80
2023-05-12T22:00:53.334Z,28.88
2023-05-12T22:03:20.595Z,35.28
2023-05-12T22:05:48.196Z,28.92
2023-05-12T22:08:16.280Z,26.15
2023-05-12T22:10:43.295Z,28.00
2023-05-12T22:13:10.004Z,28.98
2023-05-12T22:15:36.746Z,25.15
2023-05-12T22:18:03.680Z,27.33
2023-05-12T22:20:30.434Z,25.75
2023-05-12T22:22:57.590Z,31.92
2023-05-12T22:25:24.302Z,27.23
2023-05-12T22:27:51.006Z,25.50
2023-05-12T22:30:18.859Z,30.38
2023-05-12T22:32:45.803Z,29.02
2023-05-12T22:35:12.593Z,27.42
2023-05-12T22:37:39.490Z,26.48
2023-05-12T22:40:07.107Z,29.80
2023-05-12T22:42:33.893Z,28.17
2023-05-12T22:45:02.388Z,28.50
2023-05-12T22:47:29.149Z,34.90
2023-05-12T22:49:55.880Z,33.65
2023-05-12T22:52:22.591Z,27.92
2023-05-12T22:54:55.283Z,29.10
2023-05-12T22:57:22.659Z,27.08
2023-05-12T22:59:49.475Z,26.55
2023-05-12T23:02:16.542Z,23.33
2023-05-12T23:04:43.884Z,24.17
2023-05-12T23:07:10.946Z,23.88
2023-05-12T23:09:37.688Z,23.27
2023-05-12T23:12:05.160Z,22.60
2023-05-12T23:14:32.041Z,25.55
2023-05-12T23:16:58.770Z,25.60
2023-05-12T23:19:25.721Z,26.67
2023-05-12T23:21:52.418Z,23.73
2023-05-12T23:24:19.083Z,23.23
2023-05-12T23:26:45.897Z,25.25
2023-05-12T23:29:12.605Z,25.33
2023-05-12T23:31:39.326Z,22.85
2023-05-12T23:34:06.193Z,24.38
2023-05-12T23:36:33.066Z,28.17
2023-05-12T23:38:59.800Z,22.65
2023-05-12T23:41:26.671Z,24.23
2023-05-12T23:43:54.260Z,25.15
2023-05-12T23:46:22.480Z,21.50
2023-05-12T23:48:49.707Z,23.98
2023-05-12T23:51:17.839Z,22.85
2023-05-12T23:53:44.776Z,21.65
2023-05-12T23:56:11.526Z,20.08
2023-05-12T23:58:38.733Z,23.25
